Time;durP1;ratioP1;P1;durP2;ratioP2;P2;SDS_P1;SDS_P2;PMS_P1;PMS_P2;Temp;Humidity;BMP_temperature;BMP_pressure;BME280_temperature;BME280_humidity;BME280_pressure;Samples;Min_cycle;Max_cycle;Signal;HPM_P1;HPM_P2
2022/03/17 00:01:13;;;;;;;12.90;7.55;;;;;;;;;;10276516;28;20049;-54
2022/03/17 00:06:11;;;;;;;13.07;7.57;;;;;;;;;;10276239;28;20068;-54
2022/03/17 00:11:11;;;;;;;15.10;8.98;;;;;;;;;;10276061;28;20057;-52
2022/03/17 00:16:10;;;;;;;14.05;8.85;;;;;;;;;;10276907;28;20044;-54
2022/03/17 00:21:09;;;;;;;12.73;7.90;;;;;;;;;;10275927;28;20078;-53
2022/03/17 00:26:07;;;;;;;10.95;8.30;;;;;;;;;;10276561;28;20075;-54
2022/03/17 00:31:07;;;;;;;17.38;7.22;;;;;;;;;;10276522;28;20077;-54
2022/03/17 00:36:05;;;;;;;12.98;6.82;;;;;;;;;;10276448;28;20077;-54
2022/03/17 00:41:04;;;;;;;10.52;7.15;;;;;;;;;;10276220;28;20075;-54
2022/03/17 00:46:02;;;;;;;12.23;6.40;;;;;;;;;;10276347;28;20052;-53
2022/03/17 00:51:02;;;;;;;13.25;7.22;;;;;;;;;;10274934;28;20091;-54
2022/03/17 00:56:00;;;;;;;11.85;7.38;;;;;;;;;;10275958;28;20068;-54
2022/03/17 01:00:58;;;;;;;11.65;6.70;;;;;;;;;;10275815;28;20084;-53
2022/03/17 01:05:59;;;;;;;10.27;6.60;;;;;;;;;;10275608;28;20064;-54
2022/03/17 01:10:59;;;;;;;13.82;6.93;;;;;;;;;;10274746;28;20081;-54
2022/03/17 01:15:57;;;;;;;19.45;6.80;;;;;;;;;;10275808;28;20076;-53
2022/03/17 01:20:57;;;;;;;11.45;5.75;;;;;;;;;;10275616;28;20044;-53
2022/03/17 01:25:55;;;;;;;11.00;6.05;;;;;;;;;;10275580;28;20049;-53
2022/03/17 01:30:55;;;;;;;7.45;4.60;;;;;;;;;;10275433;28;20084;-53
2022/03/17 01:35:53;;;;;;;8.85;4.50;;;;;;;;;;10275173;28;20618;-52
2022/03/17 01:40:51;;;;;;;9.38;5.05;;;;;;;;;;10273038;28;20080;-54
2022/03/17 01:45:52;;;;;;;6.05;4.68;;;;;;;;;;10275336;28;20360;-55
2022/03/17 01:50:53;;;;;;;6.60;4.78;;;;;;;;;;10273939;28;20167;-54
2022/03/17 01:55:51;;;;;;;8.05;3.92;;;;;;;;;;10274817;28;20061;-54
2022/03/17 02:00:50;;;;;;;7.43;4.82;;;;;;;;;;10274794;28;20069;-51
2022/03/17 02:05:51;;;;;;;8.32;4.40;;;;;;;;;;10280198;28;20097;-54
2022/03/17 02:16:07;;;;;;;6.65;4.43;;;;;;;;;;10241930;28;20061;-53
2022/03/17 02:21:05;;;;;;;9.65;4.18;;;;;;;;;;10259461;28;20064;-54
2022/03/17 02:26:05;;;;;;;8.60;4.70;;;;;;;;;;10280395;28;20049;-54
2022/03/17 02:31:06;;;;;;;7.63;4.15;;;;;;;;;;10281267;28;20076;-54
2022/03/17 02:36:04;;;;;;;6.90;4.90;;;;;;;;;;10281009;28;20041;-51
2022/03/17 02:41:02;;;;;;;11.32;5.18;;;;;;;;;;10280816;28;20052;-54
2022/03/17 02:46:02;;;;;;;7.43;5.30;;;;;;;;;;10280593;28;20410;-54
2022/03/17 02:51:00;;;;;;;6.88;4.15;;;;;;;;;;10279108;28;20091;-54
2022/03/17 02:55:59;;;;;;;9.32;6.05;;;;;;;;;;10278258;28;20052;-53
2022/03/17 03:00:57;;;;;;;10.18;6.10;;;;;;;;;;10280316;28;20378;-54
2022/03/17 03:05:57;;;;;;;9.27;5.30;;;;;;;;;;10280265;28;20044;-54
2022/03/17 03:10:56;;;;;;;8.93;5.63;;;;;;;;;;10279540;28;20080;-53
2022/03/17 03:15:55;;;;;;;10.43;5.38;;;;;;;;;;10279286;28;20048;-53
2022/03/17 03:20:53;;;;;;;8.63;4.97;;;;;;;;;;10278721;28;20052;-53
2022/03/17 03:25:53;;;;;;;8.68;5.55;;;;;;;;;;10278954;28;20075;-52
2022/03/17 03:30:54;;;;;;;5.95;4.90;;;;;;;;;;10278637;28;20091;-54
2022/03/17 03:41:09;;;;;;;7.82;5.88;;;;;;;;;;10275604;28;20099;-54
2022/03/17 03:46:08;;;;;;;5.35;4.57;;;;;;;;;;10278184;28;20076;-54
2022/03/17 03:51:06;;;;;;;5.88;4.57;;;;;;;;;;10277047;28;20099;-54
2022/03/17 03:56:05;;;;;;;7.00;5.28;;;;;;;;;;10277887;28;20130;-53
2022/03/17 04:01:04;;;;;;;10.80;5.22;;;;;;;;;;10275136;28;20069;-55
2022/03/17 04:06:03;;;;;;;9.23;6.07;;;;;;;;;;10277522;28;20045;-55
2022/03/17 04:11:01;;;;;;;9.70;5.53;;;;;;;;;;10274870;28;20053;-51
2022/03/17 04:15:59;;;;;;;9.98;5.75;;;;;;;;;;10277279;28;20044;-55
2022/03/17 04:20:59;;;;;;;13.02;7.13;;;;;;;;;;10276868;28;20037;-53
2022/03/17 04:25:57;;;;;;;11.77;6.00;;;;;;;;;;10276221;28;20037;-54
2022/03/17 04:30:56;;;;;;;8.18;5.03;;;;;;;;;;10276469;28;20092;-54
2022/03/17 04:35:55;;;;;;;12.15;5.55;;;;;;;;;;10276497;28;20041;-54
2022/03/17 04:40:55;;;;;;;18.80;9.88;;;;;;;;;;10275711;28;20072;-55
2022/03/17 04:45:53;;;;;;;15.45;10.27;;;;;;;;;;10261776;28;20081;-54
2022/03/17 04:50:51;;;;;;;8.35;5.53;;;;;;;;;;10270387;28;20076;-56
2022/03/17 04:55:50;;;;;;;8.43;5.53;;;;;;;;;;10252818;28;20076;-54
2022/03/17 05:00:51;;;;;;;6.90;5.57;;;;;;;;;;10237972;28;20033;-54
2022/03/17 05:05:49;;;;;;;8.82;4.95;;;;;;;;;;10240894;28;20498;-55
2022/03/17 05:10:48;;;;;;;13.38;6.70;;;;;;;;;;10266620;28;20085;-52
2022/03/17 05:15:47;;;;;;;15.40;6.68;;;;;;;;;;10233796;28;20075;-54
2022/03/17 05:20:48;;;;;;;7.03;5.95;;;;;;;;;;10239809;28;20057;-53
2022/03/17 05:25:47;;;;;;;10.63;6.22;;;;;;;;;;10274377;28;20143;-54
2022/03/17 05:30:46;;;;;;;9.57;6.97;;;;;;;;;;10269563;28;20073;-55
2022/03/17 05:35:45;;;;;;;8.43;4.57;;;;;;;;;;10245114;28;20056;-51
2022/03/17 05:40:45;;;;;;;8.68;4.90;;;;;;;;;;10252597;28;20083;-53
2022/03/17 05:45:43;;;;;;;7.82;6.28;;;;;;;;;;10282225;28;20037;-53
2022/03/17 05:50:42;;;;;;;9.18;5.20;;;;;;;;;;10266209;28;20088;-51
2022/03/17 05:55:41;;;;;;;8.90;5.32;;;;;;;;;;10264565;28;20077;-54
2022/03/17 06:00:40;;;;;;;11.00;6.18;;;;;;;;;;10281703;28;20053;-52
2022/03/17 06:05:39;;;;;;;9.70;6.93;;;;;;;;;;10262480;28;20077;-55
2022/03/17 06:10:40;;;;;;;9.18;6.40;;;;;;;;;;10267238;28;20076;-55
2022/03/17 06:15:38;;;;;;;11.15;6.05;;;;;;;;;;10262435;28;20108;-55
2022/03/17 06:20:39;;;;;;;16.55;7.70;;;;;;;;;;10259500;28;20099;-55
2022/03/17 06:25:37;;;;;;;11.57;6.82;;;;;;;;;;10260510;28;20056;-54
2022/03/17 06:30:37;;;;;;;18.27;11.35;;;;;;;;;;10271250;28;20203;-55
2022/03/17 06:35:38;;;;;;;11.90;7.05;;;;;;;;;;10259296;28;20045;-54
2022/03/17 06:40:37;;;;;;;11.30;7.68;;;;;;;;;;10259540;28;20049;-54
2022/03/17 06:45:36;;;;;;;8.05;6.88;;;;;;;;;;10261159;28;20525;-55
2022/03/17 06:50:34;;;;;;;11.38;7.28;;;;;;;;;;10257879;28;20092;-51
2022/03/17 06:55:34;;;;;;;12.10;8.15;;;;;;;;;;10259032;28;20076;-54
2022/03/17 07:00:32;;;;;;;10.55;6.70;;;;;;;;;;10279860;28;20072;-55
2022/03/17 07:05:30;;;;;;;11.98;8.40;;;;;;;;;;10272706;28;20068;-54
2022/03/17 07:10:29;;;;;;;8.65;6.70;;;;;;;;;;10278227;28;20091;-53
2022/03/17 07:15:29;;;;;;;8.23;6.15;;;;;;;;;;10270736;28;20068;-54
2022/03/17 07:20:27;;;;;;;12.50;6.28;;;;;;;;;;10272987;28;20485;-54
2022/03/17 07:25:26;;;;;;;9.02;5.50;;;;;;;;;;10276901;28;20080;-56
2022/03/17 07:30:26;;;;;;;7.93;6.00;;;;;;;;;;10278551;28;20479;-55
2022/03/17 07:35:27;;;;;;;9.90;6.32;;;;;;;;;;10273660;28;20079;-56
2022/03/17 07:40:25;;;;;;;5.95;5.05;;;;;;;;;;10270081;28;20080;-54
2022/03/17 07:45:23;;;;;;;10.95;6.00;;;;;;;;;;10269522;28;20555;-50
2022/03/17 07:50:43;;;;;;;8.55;4.85;;;;;;;;;;10274400;28;20505;-53
2022/03/17 07:55:42;;;;;;;6.68;4.40;;;;;;;;;;10277884;28;20064;-53
2022/03/17 08:00:42;;;;;;;7.72;5.70;;;;;;;;;;10275822;28;20076;-53
2022/03/17 08:05:40;;;;;;;9.75;7.70;;;;;;;;;;10277824;28;20064;-55
2022/03/17 08:10:41;;;;;;;14.40;9.95;;;;;;;;;;10277319;28;20148;-54
2022/03/17 08:15:40;;;;;;;11.25;8.13;;;;;;;;;;10276936;28;20053;-54
2022/03/17 08:20:39;;;;;;;10.68;6.65;;;;;;;;;;10276862;28;20053;-52
2022/03/17 08:25:38;;;;;;;8.93;5.68;;;;;;;;;;10276939;28;20079;-50
2022/03/17 08:30:37;;;;;;;15.23;7.35;;;;;;;;;;10276776;28;20072;-54
2022/03/17 08:35:36;;;;;;;16.80;9.20;;;;;;;;;;10276710;28;20056;-51
2022/03/17 08:40:34;;;;;;;28.17;14.15;;;;;;;;;;10276347;28;20068;-51
2022/03/17 08:50:49;;;;;;;8.65;4.88;;;;;;;;;;10275157;28;20092;-52
2022/03/17 08:55:49;;;;;;;7.05;4.55;;;;;;;;;;10275941;28;20076;-53
2022/03/17 09:00:47;;;;;;;7.82;6.15;;;;;;;;;;10275807;28;20099;-53
2022/03/17 09:05:47;;;;;;;7.95;4.88;;;;;;;;;;10275668;28;20077;-53
2022/03/17 09:10:48;;;;;;;8.07;4.53;;;;;;;;;;10275595;28;20087;-55
2022/03/17 09:15:48;;;;;;;8.32;5.50;;;;;;;;;;10283307;28;20071;-55
2022/03/17 09:20:47;;;;;;;11.13;5.95;;;;;;;;;;10283781;28;20053;-53
2022/03/17 09:25:46;;;;;;;8.50;6.28;;;;;;;;;;10283713;28;20047;-55
2022/03/17 09:30:45;;;;;;;13.07;7.25;;;;;;;;;;10283500;28;20076;-54
2022/03/17 09:35:43;;;;;;;7.72;5.65;;;;;;;;;;10283286;28;20048;-54
2022/03/17 09:40:41;;;;;;;12.48;6.78;;;;;;;;;;10283025;28;20048;-53
2022/03/17 09:45:42;;;;;;;8.95;4.10;;;;;;;;;;10283197;28;20434;-51
2022/03/17 09:50:41;;;;;;;11.18;5.63;;;;;;;;;;10281991;28;20136;-53
2022/03/17 09:55:43;;;;;;;14.55;6.28;;;;;;;;;;10282498;28;20103;-54
2022/03/17 10:00:49;;;;;;;16.42;8.52;;;;;;;;;;10282358;28;20347;-53
2022/03/17 10:05:48;;;;;;;11.35;6.75;;;;;;;;;;10281872;28;20076;-53
2022/03/17 10:10:52;;;;;;;24.75;11.65;;;;;;;;;;10282016;28;20088;-53
2022/03/17 10:21:16;;;;;;;12.63;7.50;;;;;;;;;;10351540;28;20385;-54
2022/03/17 10:26:30;;;;;;;9.25;5.90;;;;;;;;;;10351342;28;20036;-50
2022/03/17 10:31:28;;;;;;;19.33;11.25;;;;;;;;;;10351097;28;20040;-54
2022/03/17 10:36:30;;;;;;;9.27;6.78;;;;;;;;;;10351354;28;20429;-54
2022/03/17 10:41:39;;;;;;;19.55;9.30;;;;;;;;;;10350369;28;20040;-52
2022/03/17 10:46:37;;;;;;;16.35;10.80;;;;;;;;;;10350536;28;20083;-53
2022/03/17 10:51:39;;;;;;;11.95;9.27;;;;;;;;;;10350803;28;20044;-54
2022/03/17 10:56:38;;;;;;;26.90;13.70;;;;;;;;;;10350556;28;20051;-53
2022/03/17 11:01:37;;;;;;;17.77;11.18;;;;;;;;;;10349909;28;20079;-51
2022/03/17 11:06:39;;;;;;;20.30;10.25;;;;;;;;;;10350260;28;20056;-53
2022/03/17 11:11:39;;;;;;;15.10;10.70;;;;;;;;;;10349627;28;20044;-53
2022/03/17 11:16:39;;;;;;;15.05;8.52;;;;;;;;;;10349120;28;20037;-55
2022/03/17 11:21:38;;;;;;;12.25;5.90;;;;;;;;;;10349543;28;20076;-53
2022/03/17 11:26:37;;;;;;;10.25;5.95;;;;;;;;;;10348977;28;20469;-55
2022/03/17 11:31:53;;;;;;;14.60;9.10;;;;;;;;;;10327527;28;20532;-54
2022/03/17 11:37:07;;;;;;;19.42;12.93;;;;;;;;;;10321404;28;20087;-55
2022/03/17 11:42:28;;;;;;;24.00;16.73;;;;;;;;;;10320885;28;20048;-55
2022/03/17 11:47:28;;;;;;;12.60;9.52;;;;;;;;;;10321063;28;20080;-53
2022/03/17 11:52:50;;;;;;;10.50;7.93;;;;;;;;;;10321009;28;20072;-54
2022/03/17 11:58:03;;;;;;;19.05;12.82;;;;;;;;;;10320747;28;20076;-53
2022/03/17 12:03:09;;;;;;;7.55;5.38;;;;;;;;;;10320595;28;20078;-50
2022/03/17 12:08:07;;;;;;;16.13;13.93;;;;;;;;;;10320605;28;20072;-52
2022/03/17 12:13:20;;;;;;;11.32;7.95;;;;;;;;;;10320088;28;20754;-51
2022/03/17 12:18:20;;;;;;;9.30;5.88;;;;;;;;;;10319048;28;20551;-53
2022/03/17 12:23:33;;;;;;;11.40;6.63;;;;;;;;;;10320622;28;20527;-54
2022/03/17 12:28:31;;;;;;;10.15;6.72;;;;;;;;;;10307184;28;20525;-53
2022/03/17 12:33:31;;;;;;;10.43;8.30;;;;;;;;;;10317782;28;20067;-51
2022/03/17 12:38:29;;;;;;;15.98;10.05;;;;;;;;;;10319280;28;20087;-53
2022/03/17 12:43:27;;;;;;;9.50;6.32;;;;;;;;;;10317906;28;20059;-54
2022/03/17 12:48:26;;;;;;;11.35;8.20;;;;;;;;;;10317961;28;20044;-52
2022/03/17 12:53:27;;;;;;;12.48;7.97;;;;;;;;;;10318697;28;20044;-53
2022/03/17 12:58:25;;;;;;;12.88;7.43;;;;;;;;;;10318277;28;20083;-55
2022/03/17 13:03:25;;;;;;;15.27;9.57;;;;;;;;;;10317512;28;20510;-54
2022/03/17 13:08:25;;;;;;;12.35;9.43;;;;;;;;;;10317849;28;20078;-55
2022/03/17 13:18:43;;;;;;;16.95;7.30;;;;;;;;;;10316963;28;20091;-53
2022/03/17 13:23:41;;;;;;;15.90;10.27;;;;;;;;;;10317433;28;20051;-51
2022/03/17 13:29:00;;;;;;;13.80;7.63;;;;;;;;;;10316865;28;20437;-54
2022/03/17 13:33:59;;;;;;;8.10;6.55;;;;;;;;;;10317296;28;20068;-53
2022/03/17 13:39:09;;;;;;;12.10;9.15;;;;;;;;;;10316374;28;20068;-53
2022/03/17 13:44:12;;;;;;;17.45;10.57;;;;;;;;;;10317148;28;20040;-52
2022/03/17 13:49:13;;;;;;;11.80;8.10;;;;;;;;;;10317206;28;20434;-56
2022/03/17 13:54:14;;;;;;;11.05;8.32;;;;;;;;;;10316117;28;20045;-55
2022/03/17 13:59:15;;;;;;;13.50;9.82;;;;;;;;;;10316730;28;20080;-55
2022/03/17 14:04:26;;;;;;;12.18;7.60;;;;;;;;;;10316590;28;20056;-54
2022/03/17 14:09:24;;;;;;;11.70;7.35;;;;;;;;;;10315529;28;20048;-54
2022/03/17 14:14:24;;;;;;;51.83;30.98;;;;;;;;;;10316274;28;20401;-52
2022/03/17 14:19:22;;;;;;;15.30;11.55;;;;;;;;;;10315680;28;20088;-53
2022/03/17 14:24:21;;;;;;;12.18;7.43;;;;;;;;;;10316816;28;20051;-54
2022/03/17 14:29:20;;;;;;;15.02;9.68;;;;;;;;;;10316589;28;20068;-51
2022/03/17 14:34:22;;;;;;;15.00;13.52;;;;;;;;;;10316388;28;20068;-53
2022/03/17 14:39:21;;;;;;;13.77;8.48;;;;;;;;;;10316011;28;20083;-54
2022/03/17 14:44:19;;;;;;;8.93;6.88;;;;;;;;;;10315019;28;20047;-51
2022/03/17 14:49:17;;;;;;;11.82;7.60;;;;;;;;;;10315761;28;20044;-53
2022/03/17 14:54:17;;;;;;;13.57;10.15;;;;;;;;;;10313758;28;20418;-55
2022/03/17 14:59:15;;;;;;;13.18;9.30;;;;;;;;;;10314902;28;20091;-53
2022/03/17 15:04:13;;;;;;;18.00;10.90;;;;;;;;;;10316700;28;20067;-54
2022/03/17 15:09:12;;;;;;;16.75;10.00;;;;;;;;;;10322640;28;20079;-55
2022/03/17 15:14:13;;;;;;;19.15;8.63;;;;;;;;;;10321664;28;20052;-53
2022/03/17 15:19:11;;;;;;;10.35;6.88;;;;;;;;;;10321408;28;20083;-55
2022/03/17 15:24:10;;;;;;;14.77;9.60;;;;;;;;;;10321445;28;20429;-54
2022/03/17 15:34:26;;;;;;;15.77;10.13;;;;;;;;;;10321439;28;20040;-54
2022/03/17 15:39:24;;;;;;;17.35;12.02;;;;;;;;;;10320818;28;20088;-52
2022/03/17 15:44:23;;;;;;;15.63;10.82;;;;;;;;;;10321045;28;20079;-54
2022/03/17 15:49:21;;;;;;;31.67;16.50;;;;;;;;;;10320058;28;20071;-52
2022/03/17 15:54:21;;;;;;;33.60;20.08;;;;;;;;;;10320095;28;20067;-54
2022/03/17 15:59:19;;;;;;;39.63;25.73;;;;;;;;;;10320213;28;20076;-54
2022/03/17 16:04:17;;;;;;;22.42;15.50;;;;;;;;;;10316768;28;20087;-53
2022/03/17 16:09:16;;;;;;;35.00;20.35;;;;;;;;;;10317801;28;20081;-55
2022/03/17 16:19:32;;;;;;;32.50;20.20;;;;;;;;;;10318816;28;20528;-52
2022/03/17 16:24:35;;;;;;;38.60;23.42;;;;;;;;;;10320142;28;20074;-54
2022/03/17 16:29:34;;;;;;;38.03;24.20;;;;;;;;;;10319700;28;20064;-55
2022/03/17 16:34:33;;;;;;;38.47;25.23;;;;;;;;;;10319220;28;20075;-54
2022/03/17 16:39:31;;;;;;;42.85;26.58;;;;;;;;;;10318333;28;20532;-52
2022/03/17 16:44:36;;;;;;;39.95;24.98;;;;;;;;;;10319012;28;20044;-50
2022/03/17 16:49:35;;;;;;;40.88;26.10;;;;;;;;;;10317772;28;20041;-54
2022/03/17 16:54:34;;;;;;;43.33;26.58;;;;;;;;;;10316486;28;20044;-51
2022/03/17 16:59:33;;;;;;;37.60;26.15;;;;;;;;;;10317196;28;20079;-54
2022/03/17 17:04:33;;;;;;;31.20;20.42;;;;;;;;;;10317008;28;20076;-52
2022/03/17 17:09:33;;;;;;;60.83;34.67;;;;;;;;;;10315957;28;20541;-53
2022/03/17 17:14:31;;;;;;;42.53;27.55;;;;;;;;;;10316830;28;20091;-54
2022/03/17 17:19:29;;;;;;;33.75;21.92;;;;;;;;;;10315599;28;20095;-53
2022/03/17 17:35:00;;;;;;;43.92;26.15;;;;;;;;;;10316163;28;20072;-53
2022/03/17 17:40:00;;;;;;;52.75;34.05;;;;;;;;;;10315863;28;20461;-53
2022/03/17 17:44:58;;;;;;;33.83;21.35;;;;;;;;;;10315885;28;20494;-54
2022/03/17 17:49:56;;;;;;;97.68;63.53;;;;;;;;;;10315649;28;20041;-53
2022/03/17 17:54:55;;;;;;;48.83;31.30;;;;;;;;;;10315143;28;20052;-55
2022/03/17 17:59:55;;;;;;;87.03;54.40;;;;;;;;;;10314687;28;20080;-55
2022/03/17 18:04:53;;;;;;;56.08;33.72;;;;;;;;;;10314569;28;20083;-54
2022/03/17 18:09:51;;;;;;;51.72;29.83;;;;;;;;;;10315204;28;20544;-51
2022/03/17 18:14:49;;;;;;;42.38;25.05;;;;;;;;;;10314944;28;20150;-54
2022/03/17 18:19:50;;;;;;;50.25;25.02;;;;;;;;;;10313462;28;20088;-55
2022/03/17 18:24:48;;;;;;;45.17;25.02;;;;;;;;;;10314260;28;20052;-53
2022/03/17 18:29:47;;;;;;;48.63;24.52;;;;;;;;;;10314044;28;20080;-55
2022/03/17 18:34:45;;;;;;;56.65;32.00;;;;;;;;;;10314382;28;20419;-52
2022/03/17 18:39:45;;;;;;;72.63;35.92;;;;;;;;;;10316298;28;20528;-54
2022/03/17 18:44:43;;;;;;;47.88;31.33;;;;;;;;;;10322160;28;20075;-54
2022/03/17 18:49:41;;;;;;;29.13;20.65;;;;;;;;;;10322191;28;20080;-53
2022/03/17 18:54:39;;;;;;;19.15;16.17;;;;;;;;;;10321898;28;20087;-55
2022/03/17 18:59:39;;;;;;;17.30;11.90;;;;;;;;;;10321796;28;20167;-54
2022/03/17 19:04:37;;;;;;;18.45;12.57;;;;;;;;;;10321251;28;20055;-54
2022/03/17 19:09:35;;;;;;;17.98;13.25;;;;;;;;;;10321042;28;20083;-55
2022/03/17 19:14:34;;;;;;;30.88;17.73;;;;;;;;;;10321484;28;20068;-53
2022/03/17 19:19:33;;;;;;;27.13;15.60;;;;;;;;;;10319971;28;20076;-54
2022/03/17 19:24:32;;;;;;;19.13;13.90;;;;;;;;;;10320901;28;20515;-53
2022/03/17 19:29:30;;;;;;;19.30;11.80;;;;;;;;;;10321100;28;20425;-55
2022/03/17 19:34:28;;;;;;;17.05;10.80;;;;;;;;;;10320095;28;20067;-53
2022/03/17 19:39:29;;;;;;;17.75;11.98;;;;;;;;;;10319851;28;20051;-55
2022/03/17 19:44:27;;;;;;;18.45;12.50;;;;;;;;;;10319959;28;20955;-54
2022/03/17 19:54:42;;;;;;;15.40;10.75;;;;;;;;;;10319057;28;20230;-53
2022/03/17 19:59:41;;;;;;;13.15;8.65;;;;;;;;;;10316914;28;20181;-52
2022/03/17 20:04:43;;;;;;;14.63;8.75;;;;;;;;;;10293398;28;20072;-51
2022/03/17 20:09:42;;;;;;;9.50;7.90;;;;;;;;;;10289350;28;20400;-51
2022/03/17 20:14:41;;;;;;;14.25;10.00;;;;;;;;;;10276914;28;20072;-52
2022/03/17 20:19:39;;;;;;;12.40;8.85;;;;;;;;;;10287280;28;20427;-52
2022/03/17 20:24:38;;;;;;;11.10;7.97;;;;;;;;;;10290165;28;20083;-51
2022/03/17 20:29:38;;;;;;;22.95;13.50;;;;;;;;;;10292452;28;20068;-52
2022/03/17 20:34:36;;;;;;;18.40;12.23;;;;;;;;;;10293600;28;20076;-53
2022/03/17 20:39:36;;;;;;;13.57;8.57;;;;;;;;;;10298637;28;20084;-54
2022/03/17 20:44:34;;;;;;;33.92;22.33;;;;;;;;;;10305838;28;20474;-53
2022/03/17 20:49:34;;;;;;;12.30;9.40;;;;;;;;;;10318557;28;20055;-52
2022/03/17 20:54:36;;;;;;;16.50;10.20;;;;;;;;;;10288805;28;20060;-51
2022/03/17 20:59:34;;;;;;;18.60;14.07;;;;;;;;;;10286230;28;20068;-47
2022/03/17 21:04:34;;;;;;;22.35;13.68;;;;;;;;;;10284787;28;20160;-52
2022/03/17 21:09:32;;;;;;;51.85;26.48;;;;;;;;;;10285814;28;20092;-53
2022/03/17 21:14:30;;;;;;;42.33;23.77;;;;;;;;;;10289662;28;20079;-52
2022/03/17 21:19:29;;;;;;;53.13;30.27;;;;;;;;;;10289020;28;20099;-53
2022/03/17 21:24:28;;;;;;;86.38;43.67;;;;;;;;;;10287810;28;20469;-52
2022/03/17 21:29:27;;;;;;;67.28;37.05;;;;;;;;;;10290045;28;20099;-50
2022/03/17 21:34:25;;;;;;;27.45;19.25;;;;;;;;;;10293453;28;20068;-50
2022/03/17 21:39:23;;;;;;;19.20;13.73;;;;;;;;;;10304679;28;20047;-49
2022/03/17 21:44:23;;;;;;;17.52;10.82;;;;;;;;;;10315354;28;20505;-50
2022/03/17 21:49:21;;;;;;;15.18;9.43;;;;;;;;;;10315163;28;20494;-52
2022/03/17 21:54:20;;;;;;;13.52;7.78;;;;;;;;;;10315297;28;20048;-52
2022/03/17 21:59:18;;;;;;;15.50;9.98;;;;;;;;;;10314279;28;20045;-52
2022/03/17 22:04:20;;;;;;;16.55;11.00;;;;;;;;;;10314223;28;20449;-49
2022/03/17 22:09:18;;;;;;;12.85;8.93;;;;;;;;;;10315222;28;20504;-49
2022/03/17 22:14:16;;;;;;;123.55;41.53;;;;;;;;;;10314728;28;20044;-54
2022/03/17 22:19:15;;;;;;;63.22;26.85;;;;;;;;;;10313711;28;20049;-53
2022/03/17 22:24:14;;;;;;;64.30;28.83;;;;;;;;;;10314310;28;20084;-51
2022/03/17 22:29:12;;;;;;;19.33;13.88;;;;;;;;;;10300286;28;20501;-51
2022/03/17 22:34:11;;;;;;;13.25;8.57;;;;;;;;;;10315333;28;20049;-52
2022/03/17 22:39:09;;;;;;;11.75;7.70;;;;;;;;;;10304192;28;20080;-54
2022/03/17 22:44:09;;;;;;;9.25;6.28;;;;;;;;;;10273159;28;20498;-51
2022/03/17 22:49:08;;;;;;;9.07;5.80;;;;;;;;;;10273986;28;20064;-50
2022/03/17 22:54:06;;;;;;;12.23;8.70;;;;;;;;;;10274116;28;20077;-49
2022/03/17 22:59:05;;;;;;;41.47;24.17;;;;;;;;;;10274037;28;20045;-53
2022/03/17 23:04:05;;;;;;;67.45;32.10;;;;;;;;;;10273453;28;20156;-51
2022/03/17 23:09:04;;;;;;;63.17;28.35;;;;;;;;;;10273903;28;20179;-53
2022/03/17 23:14:02;;;;;;;94.15;41.40;;;;;;;;;;10274069;28;20049;-52
2022/03/17 23:19:01;;;;;;;44.03;23.88;;;;;;;;;;10273094;28;20088;-49
2022/03/17 23:24:01;;;;;;;29.10;19.35;;;;;;;;;;10273681;28;20096;-50
2022/03/17 23:28:59;;;;;;;17.30;13.57;;;;;;;;;;10281355;28;20068;-51
2022/03/17 23:33:58;;;;;;;14.10;9.80;;;;;;;;;;10291854;28;20124;-53
2022/03/17 23:39:01;;;;;;;14.15;10.25;;;;;;;;;;10293729;28;20496;-53
2022/03/17 23:44:00;;;;;;;14.32;9.30;;;;;;;;;;10316814;28;20068;-49
2022/03/17 23:48:59;;;;;;;10.07;7.47;;;;;;;;;;10303647;28;20073;-52
2022/03/17 23:53:57;;;;;;;11.55;8.70;;;;;;;;;;10280555;28;20040;-52
2022/03/17 23:58:57;;;;;;;13.30;9.63;;;;;;;;;;10280087;28;20048;-50
